createdAt,value
2023-05-04T00:02:18.412Z,50.31
2023-05-04T00:04:45.013Z,50.31
2023-05-04T00:07:11.663Z,50.39
2023-05-04T00:09:38.464Z,50.42
2023-05-04T00:12:06.754Z,50.43
2023-05-04T00:14:33.428Z,50.46
2023-05-04T00:17:00.027Z,50.63
2023-05-04T00:19:26.590Z,50.56
2023-05-04T00:21:53.126Z,50.61
2023-05-04T00:24:19.648Z,50.70
2023-05-04T00:26:46.346Z,50.76
2023-05-04T00:29:12.934Z,50.82
2023-05-04T00:31:39.607Z,50.91
2023-05-04T00:34:06.323Z,50.86
2023-05-04T00:36:32.888Z,50.98
2023-05-04T00:38:59.487Z,51.13
2023-05-04T00:41:26.106Z,51.20
2023-05-04T00:43:52.673Z,51.11
2023-05-04T00:46:19.462Z,51.05
2023-05-04T00:48:48.514Z,51.18
2023-05-04T00:51:17.035Z,51.17
2023-05-04T00:53:44.077Z,51.35
2023-05-04T00:56:11.896Z,51.45
2023-05-04T00:58:38.507Z,51.43
2023-05-04T01:01:05.367Z,51.68
2023-05-04T01:03:33.729Z,51.89
2023-05-04T01:06:19.545Z,52.02
2023-05-04T01:08:57.882Z,52.10
2023-05-04T01:11:42.733Z,52.22
2023-05-04T01:14:10.410Z,52.32
2023-05-04T01:16:37.083Z,52.45
2023-05-04T01:19:03.987Z,52.39
2023-05-04T01:21:31.296Z,52.44
2023-05-04T01:23:59.126Z,52.53
2023-05-04T01:26:29.909Z,52.49
2023-05-04T01:29:04.918Z,52.54
2023-05-04T01:31:35.399Z,52.58
2023-05-04T01:34:03.349Z,52.58
2023-05-04T01:36:30.822Z,52.55
2023-05-04T01:39:00.218Z,52.68
2023-05-04T01:41:27.412Z,52.83
2023-05-04T01:43:54.418Z,52.86
2023-05-04T01:46:21.446Z,52.85
2023-05-04T01:48:48.159Z,52.92
2023-05-04T01:51:14.790Z,52.77
2023-05-04T01:53:41.380Z,53.04
2023-05-04T01:56:09.398Z,53.04
2023-05-04T01:58:35.993Z,52.99
2023-05-04T02:01:02.578Z,52.92
2023-05-04T02:03:29.510Z,53.03
2023-05-04T02:05:56.186Z,53.05
2023-05-04T02:08:22.932Z,53.05
2023-05-04T02:10:49.603Z,53.17
2023-05-04T02:13:16.706Z,53.15
2023-05-04T02:18:44.881Z,53.22
2023-05-04T02:21:11.613Z,53.28
2023-05-04T02:23:38.184Z,53.42
2023-05-04T02:26:04.763Z,53.34
2023-05-04T02:28:31.322Z,53.44
2023-05-04T02:30:57.970Z,53.47
2023-05-04T02:33:24.509Z,53.48
2023-05-04T02:35:51.882Z,53.52
2023-05-04T02:38:18.420Z,53.59
2023-05-04T02:40:45.010Z,53.61
2023-05-04T02:43:11.653Z,53.57
2023-05-04T02:45:38.283Z,53.75
2023-05-04T02:48:05.099Z,53.71
2023-05-04T02:50:32.080Z,53.77
2023-05-04T02:52:58.705Z,53.77
2023-05-04T02:55:25.804Z,53.84
2023-05-04T02:57:52.382Z,53.70
2023-05-04T03:00:19.103Z,53.78
2023-05-04T03:02:45.877Z,53.84
2023-05-04T03:05:12.699Z,53.86
2023-05-04T03:07:39.402Z,53.93
2023-05-04T03:10:07.353Z,53.94
2023-05-04T03:12:34.370Z,54.11
2023-05-04T03:15:01.055Z,54.18
2023-05-04T03:17:27.779Z,54.21
2023-05-04T03:19:55.238Z,54.17
2023-05-04T03:22:22.432Z,54.20
2023-05-04T03:24:49.485Z,54.23
2023-05-04T03:27:17.293Z,54.27
2023-05-04T03:29:44.163Z,54.43
2023-05-04T03:32:13.377Z,54.47
2023-05-04T03:34:40.231Z,54.54
2023-05-04T03:37:08.144Z,54.68
2023-05-04T03:39:34.851Z,54.59
2023-05-04T03:42:02.639Z,54.64
2023-05-04T03:44:29.387Z,54.86
2023-05-04T03:46:56.116Z,54.83
2023-05-04T03:49:22.705Z,54.89
2023-05-04T03:51:49.314Z,54.93
2023-05-04T03:54:15.920Z,55.03
2023-05-04T03:56:42.518Z,55.06
2023-05-04T03:59:09.195Z,55.14
2023-05-04T04:01:36.509Z,55.08
2023-05-04T04:04:03.581Z,55.03
2023-05-04T04:06:30.994Z,55.07
2023-05-04T04:08:57.603Z,55.08
2023-05-04T04:11:24.189Z,55.10
2023-05-04T04:13:51.136Z,55.04
2023-05-04T04:16:17.783Z,55.18
2023-05-04T04:18:44.523Z,55.09
2023-05-04T04:21:11.238Z,55.29
2023-05-04T04:23:38.871Z,55.34
2023-05-04T04:26:08.342Z,55.41
2023-05-04T04:28:34.963Z,55.43
2023-05-04T04:31:03.298Z,55.41
2023-05-04T04:33:29.965Z,55.62
2023-05-04T04:35:56.581Z,55.88
2023-05-04T04:38:23.234Z,55.81
2023-05-04T04:40:49.768Z,55.79
2023-05-04T04:43:16.330Z,55.91
2023-05-04T04:45:42.960Z,55.79
2023-05-04T04:48:09.992Z,55.81
2023-05-04T04:50:39.191Z,56.01
2023-05-04T04:53:05.784Z,55.83
2023-05-04T04:55:32.590Z,55.83
2023-05-04T04:57:59.172Z,55.77
2023-05-04T05:00:26.241Z,55.78
2023-05-04T05:02:52.896Z,55.92
2023-05-04T05:05:19.725Z,55.97
2023-05-04T05:07:46.338Z,56.18
2023-05-04T05:10:19.889Z,56.09
2023-05-04T05:12:51.949Z,56.17
2023-05-04T05:15:18.677Z,56.19
2023-05-04T05:17:45.282Z,56.10
2023-05-04T05:20:12.050Z,56.15
2023-05-04T05:22:39.406Z,56.03
2023-05-04T05:25:07.542Z,55.82
2023-05-04T05:27:34.646Z,55.74
2023-05-04T05:30:02.421Z,55.77
2023-05-04T05:32:29.782Z,55.75
2023-05-04T05:34:56.835Z,55.62
2023-05-04T05:37:24.150Z,55.51
2023-05-04T05:39:51.206Z,55.30
2023-05-04T05:42:18.252Z,55.16
2023-05-04T05:44:44.828Z,55.16
2023-05-04T05:47:11.395Z,55.05
2023-05-04T05:49:38.484Z,55.05
2023-05-04T05:52:05.322Z,54.94
2023-05-04T05:54:33.494Z,54.98
2023-05-04T05:57:00.206Z,54.92
2023-05-04T05:59:26.799Z,54.84
2023-05-04T06:01:53.559Z,54.70
2023-05-04T06:04:20.290Z,54.44
2023-05-04T06:06:46.982Z,54.38
2023-05-04T06:09:13.605Z,54.23
2023-05-04T06:11:40.114Z,54.13
2023-05-04T06:14:06.743Z,53.93
2023-05-04T06:16:33.387Z,53.63
2023-05-04T06:18:59.998Z,53.44
2023-05-04T06:21:26.651Z,53.35
2023-05-04T06:23:53.263Z,53.08
2023-05-04T06:26:20.211Z,52.93
2023-05-04T06:28:46.941Z,52.57
2023-05-04T06:31:13.645Z,52.11
2023-05-04T06:33:40.205Z,51.92
2023-05-04T06:36:07.441Z,51.87
2023-05-04T06:38:35.739Z,51.72
2023-05-04T06:41:04.624Z,51.61
2023-05-04T06:43:32.441Z,51.48
2023-05-04T06:46:03.871Z,51.38
2023-05-04T06:48:31.826Z,50.85
2023-05-04T06:51:00.652Z,50.23
2023-05-04T06:53:28.399Z,49.36
2023-05-04T06:55:55.253Z,49.38
2023-05-04T06:58:22.003Z,49.02
2023-05-04T07:00:48.906Z,48.79
2023-05-04T07:03:15.824Z,47.61
2023-05-04T07:05:44.563Z,46.26
2023-05-04T07:08:11.787Z,46.28
2023-05-04T07:10:38.556Z,46.01
2023-05-04T07:13:05.890Z,45.42
2023-05-04T07:15:33.897Z,45.03
2023-05-04T07:18:01.495Z,44.88
2023-05-04T07:20:28.687Z,44.39
2023-05-04T07:22:57.055Z,43.52
2023-05-04T07:25:30.497Z,42.52
2023-05-04T07:27:58.267Z,42.41
2023-05-04T07:30:25.048Z,42.10
2023-05-04T07:32:52.013Z,41.15
2023-05-04T07:35:19.246Z,40.56
2023-05-04T07:37:46.499Z,40.34
2023-05-04T07:40:14.775Z,39.93
2023-05-04T07:42:42.249Z,39.73
2023-05-04T07:45:09.861Z,39.96
2023-05-04T07:47:37.193Z,39.23
2023-05-04T07:50:07.452Z,38.67
2023-05-04T07:52:34.313Z,38.14
2023-05-04T07:55:00.932Z,37.57
2023-05-04T07:57:27.553Z,36.50
2023-05-04T07:59:55.435Z,35.75
2023-05-04T08:02:22.889Z,35.16
2023-05-04T08:04:50.046Z,35.66
2023-05-04T08:07:17.157Z,36.23
2023-05-04T08:09:43.844Z,35.98
2023-05-04T08:12:12.301Z,35.79
2023-05-04T08:14:39.908Z,35.51
2023-05-04T08:17:06.556Z,35.53
2023-05-04T08:19:33.915Z,34.26
2023-05-04T08:22:00.747Z,33.93
2023-05-04T08:24:27.456Z,33.63
2023-05-04T08:27:06.626Z,33.36
2023-05-04T08:29:37.210Z,32.82
2023-05-04T08:32:04.316Z,32.95
2023-05-04T08:34:31.461Z,33.42
2023-05-04T08:36:58.306Z,32.72
2023-05-04T08:39:25.220Z,31.93
2023-05-04T08:41:51.870Z,31.96
2023-05-04T08:44:21.165Z,31.32
2023-05-04T08:46:54.291Z,31.33
2023-05-04T08:49:21.786Z,31.32
2023-05-04T08:51:51.270Z,31.50
2023-05-04T08:54:18.569Z,31.42
2023-05-04T08:56:47.224Z,31.22
2023-05-04T08:59:22.055Z,30.30
2023-05-04T09:01:53.060Z,29.87
2023-05-04T09:04:20.708Z,29.85
2023-05-04T09:06:47.528Z,30.08
2023-05-04T09:09:14.626Z,30.09
2023-05-04T09:11:41.428Z,30.12
2023-05-04T09:14:08.180Z,30.49
2023-05-04T09:16:36.617Z,30.71
2023-05-04T09:19:04.819Z,30.59
2023-05-04T09:21:32.211Z,29.61
2023-05-04T09:23:59.316Z,29.49
2023-05-04T09:26:30.629Z,29.07
2023-05-04T09:29:09.725Z,28.65
2023-05-04T09:31:48.057Z,28.83
2023-05-04T09:34:15.144Z,28.68
2023-05-04T09:36:42.288Z,28.78
2023-05-04T09:39:11.500Z,28.67
2023-05-04T09:41:38.458Z,28.40
2023-05-04T09:44:05.465Z,27.57
2023-05-04T09:46:33.027Z,26.94
2023-05-04T09:49:00.801Z,27.37
2023-05-04T09:51:27.622Z,26.77
2023-05-04T09:53:54.657Z,25.52
2023-05-04T09:56:37.591Z,26.18
2023-05-04T09:59:05.341Z,25.77
2023-05-04T10:01:32.442Z,25.29
2023-05-04T10:03:59.418Z,25.45
2023-05-04T10:06:28.949Z,25.72
2023-05-04T10:08:56.679Z,25.86
2023-05-04T10:11:25.756Z,25.70
2023-05-04T10:13:54.607Z,25.45
2023-05-04T10:16:46.061Z,25.32
2023-05-04T10:19:38.352Z,25.05
2023-05-04T10:22:32.942Z,25.18
2023-05-04T10:25:22.506Z,25.36
2023-05-04T10:27:49.097Z,25.62
2023-05-04T10:30:18.521Z,25.35
2023-05-04T10:32:45.871Z,25.14
2023-05-04T10:35:12.837Z,25.09
2023-05-04T10:37:51.285Z,24.97
2023-05-04T10:40:18.219Z,24.42
2023-05-04T10:42:45.234Z,23.87
2023-05-04T10:45:13.091Z,24.03
2023-05-04T10:47:40.939Z,23.79
2023-05-04T10:50:14.694Z,23.68
2023-05-04T10:52:48.935Z,23.37
2023-05-04T10:55:17.135Z,22.94
2023-05-04T10:58:02.247Z,23.18
2023-05-04T11:00:46.604Z,23.15
2023-05-04T11:03:14.530Z,22.83
2023-05-04T11:05:52.748Z,22.45
2023-05-04T11:08:26.507Z,22.94
2023-05-04T11:11:05.845Z,22.88
2023-05-04T11:13:41.500Z,22.81
2023-05-04T11:16:12.370Z,23.15
2023-05-04T11:18:39.500Z,22.90
2023-05-04T11:21:06.257Z,22.97
2023-05-04T11:23:33.492Z,22.83
2023-05-04T11:26:12.311Z,22.90
2023-05-04T11:28:39.617Z,22.85
2023-05-04T11:31:17.445Z,23.20
2023-05-04T11:33:51.570Z,23.28
2023-05-04T11:36:19.433Z,23.29
2023-05-04T11:38:47.007Z,22.81
2023-05-04T11:41:13.876Z,22.94
2023-05-04T11:43:43.661Z,22.92
2023-05-04T11:46:11.203Z,22.52
2023-05-04T11:48:38.900Z,21.97
2023-05-04T11:51:06.567Z,22.06
2023-05-04T11:53:41.610Z,22.47
2023-05-04T11:56:09.850Z,22.73
2023-05-04T11:58:37.265Z,22.64
2023-05-04T12:01:04.965Z,22.70
2023-05-04T12:03:48.623Z,22.70
2023-05-04T12:06:33.059Z,22.58
2023-05-04T12:09:06.910Z,22.14
2023-05-04T12:11:39.528Z,21.79
2023-05-04T12:14:12.703Z,21.98
2023-05-04T12:16:43.040Z,21.49
2023-05-04T12:19:15.728Z,21.59
2023-05-04T12:21:52.403Z,21.95
2023-05-04T12:24:25.199Z,22.06
2023-05-04T12:26:54.257Z,21.49
2023-05-04T12:29:23.723Z,21.40
2023-05-04T12:31:51.927Z,20.48
2023-05-04T12:34:21.757Z,21.11
2023-05-04T12:36:52.341Z,21.85
2023-05-04T12:39:21.758Z,21.86
2023-05-04T12:41:50.795Z,22.01
2023-05-04T12:44:21.278Z,21.89
2023-05-04T12:46:50.214Z,21.90
2023-05-04T12:49:19.051Z,21.10
2023-05-04T12:51:48.155Z,21.55
2023-05-04T12:54:17.773Z,21.94
2023-05-04T12:56:46.751Z,22.28
2023-05-04T12:59:15.784Z,22.18
2023-05-04T13:01:45.189Z,21.96
2023-05-04T13:04:14.137Z,21.45
2023-05-04T13:14:11.191Z,21.41
2023-05-04T13:16:37.792Z,21.28
2023-05-04T13:19:04.949Z,21.11
2023-05-04T13:21:31.920Z,20.93
2023-05-04T13:23:59.378Z,21.32
2023-05-04T13:26:26.154Z,21.29
2023-05-04T13:28:52.887Z,21.67
2023-05-04T13:31:19.628Z,21.69
2023-05-04T13:33:46.726Z,21.69
2023-05-04T13:36:13.509Z,21.78
2023-05-04T13:38:40.121Z,22.09
2023-05-04T13:41:06.821Z,22.07
2023-05-04T13:43:33.420Z,21.88
2023-05-04T13:46:04.431Z,21.89
2023-05-04T13:48:32.916Z,21.93
2023-05-04T13:50:59.593Z,22.39
2023-05-04T13:53:26.446Z,22.21
2023-05-04T13:55:53.087Z,22.47
2023-05-04T13:58:19.675Z,22.58
2023-05-04T14:00:46.718Z,22.51
2023-05-04T14:03:13.329Z,22.57
2023-05-04T14:05:39.958Z,22.53
2023-05-04T14:08:06.654Z,22.74
2023-05-04T14:10:34.934Z,22.75
2023-05-04T14:13:02.642Z,22.80
2023-05-04T14:15:29.495Z,22.91
2023-05-04T14:17:56.612Z,23.05
2023-05-04T14:20:23.300Z,23.05
2023-05-04T14:22:49.865Z,23.03
2023-05-04T14:25:16.571Z,23.03
2023-05-04T14:27:43.513Z,23.14
2023-05-04T14:30:10.953Z,23.12
2023-05-04T14:32:37.523Z,23.23
2023-05-04T14:35:08.518Z,23.35
2023-05-04T14:37:38.119Z,23.31
2023-05-04T14:40:06.591Z,23.27
2023-05-04T14:42:33.473Z,23.33
2023-05-04T14:45:00.068Z,23.55
2023-05-04T14:47:27.642Z,23.53
2023-05-04T14:49:54.398Z,23.48
2023-05-04T14:52:21.267Z,23.40
2023-05-04T14:54:47.793Z,23.63
2023-05-04T14:57:14.440Z,23.67
2023-05-04T14:59:42.135Z,23.67
2023-05-04T15:02:09.194Z,23.60
2023-05-04T15:04:36.441Z,23.75
2023-05-04T15:07:04.610Z,23.93
2023-05-04T15:09:31.677Z,24.00
2023-05-04T15:11:58.362Z,24.08
2023-05-04T15:14:26.425Z,24.15
2023-05-04T15:16:53.069Z,24.12
2023-05-04T15:19:21.097Z,24.34
2023-05-04T15:21:48.639Z,24.20
2023-05-04T15:24:15.242Z,23.96
2023-05-04T15:26:41.834Z,23.89
2023-05-04T15:29:08.792Z,23.80
2023-05-04T15:31:35.995Z,24.28
2023-05-04T15:34:02.799Z,24.52
2023-05-04T15:36:31.745Z,24.58
2023-05-04T15:38:58.383Z,24.78
2023-05-04T15:41:24.978Z,24.87
2023-05-04T15:43:51.591Z,25.00
2023-05-04T15:46:18.165Z,24.88
2023-05-04T15:48:44.930Z,24.94
2023-05-04T15:51:14.970Z,24.92
2023-05-04T15:53:41.685Z,25.10
2023-05-04T15:56:08.434Z,25.10
2023-05-04T15:58:35.080Z,24.85
2023-05-04T16:01:04.037Z,25.07
2023-05-04T16:03:31.815Z,25.02
2023-05-04T16:05:58.600Z,25.37
2023-05-04T16:08:25.998Z,25.42
2023-05-04T16:10:54.124Z,25.38
2023-05-04T16:13:20.895Z,25.34
2023-05-04T16:15:51.572Z,25.35
2023-05-04T16:18:18.582Z,25.61
2023-05-04T16:20:46.291Z,25.60
2023-05-04T16:23:15.207Z,25.50
2023-05-04T16:25:42.429Z,25.69
2023-05-04T16:28:10.268Z,25.86
2023-05-04T16:30:37.855Z,26.04
2023-05-04T16:33:04.664Z,26.20
2023-05-04T16:35:32.189Z,26.20
2023-05-04T16:37:59.023Z,26.14
2023-05-04T16:40:25.734Z,26.11
2023-05-04T16:42:52.415Z,26.22
2023-05-04T16:45:19.557Z,26.32
2023-05-04T16:47:46.413Z,26.10
2023-05-04T16:50:14.318Z,26.18
2023-05-04T16:52:41.955Z,26.30
2023-05-04T16:55:12.063Z,26.36
2023-05-04T16:57:39.159Z,26.52
2023-05-04T17:00:07.109Z,26.60
2023-05-04T17:02:34.346Z,26.69
2023-05-04T17:05:01.169Z,26.85
2023-05-04T17:07:28.529Z,26.76
2023-05-04T17:09:55.152Z,26.71
2023-05-04T17:12:23.423Z,26.82
2023-05-04T17:14:50.210Z,26.89
2023-05-04T17:17:16.849Z,27.21
2023-05-04T17:19:43.414Z,27.02
2023-05-04T17:22:11.204Z,27.33
2023-05-04T17:24:38.067Z,27.23
2023-05-04T17:27:04.975Z,27.31
2023-05-04T17:29:31.757Z,27.30
2023-05-04T17:31:58.703Z,27.52
2023-05-04T17:34:25.346Z,27.57
2023-05-04T17:36:52.206Z,27.59
2023-05-04T17:39:19.904Z,27.39
2023-05-04T17:41:48.801Z,27.73
2023-05-04T17:44:16.433Z,27.77
2023-05-04T17:46:43.743Z,27.85
2023-05-04T17:49:10.650Z,28.09
2023-05-04T17:51:37.434Z,28.13
2023-05-04T17:54:04.209Z,28.01
2023-05-04T17:56:31.032Z,28.31
2023-05-04T17:58:57.735Z,28.31
2023-05-04T18:01:24.500Z,28.60
2023-05-04T18:03:51.235Z,28.75
2023-05-04T18:06:18.089Z,28.97
2023-05-04T18:08:44.938Z,29.05
2023-05-04T18:11:12.352Z,29.16
2023-05-04T18:13:39.001Z,29.10
2023-05-04T18:16:05.920Z,29.39
2023-05-04T18:18:33.310Z,29.52
2023-05-04T18:21:00.932Z,29.46
2023-05-04T18:23:27.670Z,29.69
2023-05-04T18:25:54.388Z,29.71
2023-05-04T18:28:21.149Z,29.82
2023-05-04T18:30:48.085Z,30.03
2023-05-04T18:33:14.705Z,30.22
2023-05-04T18:35:41.915Z,30.39
2023-05-04T18:38:08.608Z,30.51
2023-05-04T18:40:35.390Z,30.58
2023-05-04T18:43:02.016Z,30.77
2023-05-04T18:45:28.677Z,31.03
2023-05-04T18:47:55.425Z,31.11
2023-05-04T18:50:22.010Z,31.14
2023-05-04T18:52:48.638Z,31.36
2023-05-04T18:55:15.242Z,31.46
2023-05-04T18:57:41.842Z,31.65
2023-05-04T19:00:09.304Z,31.82
2023-05-04T19:02:37.177Z,31.93
2023-05-04T19:05:04.010Z,32.12
2023-05-04T19:07:30.673Z,32.29
2023-05-04T19:09:57.657Z,32.49
2023-05-04T19:12:24.563Z,32.57
2023-05-04T19:14:51.325Z,32.80
2023-05-04T19:17:18.727Z,32.80
2023-05-04T19:19:45.594Z,32.84
2023-05-04T19:22:13.403Z,32.94
2023-05-04T19:24:40.152Z,33.11
2023-05-04T19:27:07.378Z,33.26
2023-05-04T19:29:34.218Z,33.44
2023-05-04T19:32:05.585Z,33.63
2023-05-04T19:34:42.996Z,33.88
2023-05-04T19:37:09.905Z,33.85
2023-05-04T19:39:36.791Z,34.01
2023-05-04T19:42:03.625Z,34.17
2023-05-04T19:44:30.312Z,34.27
2023-05-04T19:46:57.229Z,34.32
2023-05-04T19:49:25.037Z,34.56
2023-05-04T19:51:51.881Z,34.59
2023-05-04T19:54:18.660Z,34.77
2023-05-04T19:56:45.506Z,34.82
2023-05-04T19:59:12.343Z,34.86
2023-05-04T20:01:39.085Z,34.89
2023-05-04T20:04:08.300Z,35.07
2023-05-04T20:06:36.166Z,35.28
2023-05-04T20:09:03.967Z,35.37
2023-05-04T20:11:31.040Z,35.48
2023-05-04T20:13:57.901Z,35.60
2023-05-04T20:16:24.698Z,35.68
2023-05-04T20:18:51.350Z,35.82
2023-05-04T20:21:18.088Z,35.89
2023-05-04T20:23:45.141Z,35.90
2023-05-04T20:26:12.108Z,36.03
2023-05-04T20:28:39.285Z,36.00
2023-05-04T20:31:07.697Z,36.20
2023-05-04T20:33:34.791Z,36.39
2023-05-04T20:36:02.540Z,36.57
2023-05-04T20:38:29.259Z,36.66
2023-05-04T20:40:56.059Z,36.88
2023-05-04T20:43:23.009Z,36.80
2023-05-04T20:45:49.736Z,37.10
2023-05-04T20:48:16.582Z,37.15
2023-05-04T20:50:43.418Z,37.24
2023-05-04T20:53:10.097Z,37.35
2023-05-04T20:55:37.275Z,37.47
2023-05-04T20:58:03.934Z,37.49
2023-05-04T21:00:32.382Z,37.53
2023-05-04T21:03:00.530Z,37.76
2023-05-04T21:05:27.460Z,37.92
2023-05-04T21:07:54.447Z,38.03
2023-05-04T21:10:21.433Z,38.06
2023-05-04T21:12:48.413Z,38.13
2023-05-04T21:15:15.300Z,38.28
2023-05-04T21:17:42.092Z,38.31
2023-05-04T21:20:09.580Z,38.34
2023-05-04T21:22:37.203Z,38.41
2023-05-04T21:25:04.517Z,38.57
2023-05-04T21:27:31.758Z,38.65
2023-05-04T21:29:58.727Z,38.79
2023-05-04T21:32:29.197Z,38.74
2023-05-04T21:34:56.382Z,38.77
2023-05-04T21:37:23.071Z,38.93
2023-05-04T21:39:55.793Z,39.12
2023-05-04T21:42:23.876Z,39.23
2023-05-04T21:44:55.314Z,39.32
2023-05-04T21:47:25.806Z,39.59
2023-05-04T21:49:53.849Z,39.74
2023-05-04T21:52:21.128Z,39.80
2023-05-04T21:54:47.818Z,40.01
2023-05-04T21:57:14.876Z,40.08
2023-05-04T21:59:41.561Z,40.19
2023-05-04T22:02:09.952Z,40.33
2023-05-04T22:04:36.861Z,40.25
2023-05-04T22:07:03.613Z,40.32
2023-05-04T22:09:30.288Z,40.50
2023-05-04T22:11:57.127Z,40.53
2023-05-04T22:14:23.714Z,40.77
2023-05-04T22:16:52.982Z,40.74
2023-05-04T22:19:19.653Z,40.84
2023-05-04T22:21:46.278Z,40.97
2023-05-04T22:24:12.870Z,40.91
2023-05-04T22:26:40.834Z,41.05
2023-05-04T22:29:07.383Z,41.15
2023-05-04T22:31:33.965Z,41.31
2023-05-04T22:34:00.816Z,41.39
2023-05-04T22:36:27.597Z,41.56
2023-05-04T22:38:54.166Z,41.57
2023-05-04T22:41:21.288Z,41.62
2023-05-04T22:43:47.894Z,41.81
2023-05-04T22:46:16.842Z,41.83
2023-05-04T22:48:46.711Z,41.88
2023-05-04T22:51:14.727Z,41.88
2023-05-04T22:53:41.370Z,42.04
2023-05-04T22:56:08.517Z,41.99
2023-05-04T22:58:35.540Z,42.12
2023-05-04T23:01:02.812Z,42.08
2023-05-04T23:03:29.489Z,42.17
2023-05-04T23:05:59.910Z,42.25
2023-05-04T23:08:26.552Z,42.32
2023-05-04T23:10:53.199Z,42.35
2023-05-04T23:13:19.772Z,42.45
2023-05-04T23:15:46.761Z,42.64
2023-05-04T23:18:15.435Z,42.59
2023-05-04T23:20:42.872Z,42.58
2023-05-04T23:23:09.438Z,42.73
2023-05-04T23:25:36.398Z,42.84
2023-05-04T23:28:03.644Z,42.84
2023-05-04T23:30:30.338Z,42.87
2023-05-04T23:32:57.839Z,42.90
2023-05-04T23:35:24.493Z,43.00
2023-05-04T23:37:51.236Z,42.95
2023-05-04T23:40:17.858Z,43.12
2023-05-04T23:42:48.097Z,43.21
2023-05-04T23:45:14.699Z,43.29
2023-05-04T23:47:41.249Z,43.37
2023-05-04T23:50:08.629Z,43.39
2023-05-04T23:52:35.380Z,43.36
2023-05-04T23:55:02.187Z,43.41
2023-05-04T23:57:28.731Z,43.60
2023-05-04T23:59:55.395Z,43.64
